Details From MMTJ - GENERAL ABELARDO L RODRIGUEZ INTL
To KSBD - San Bernardino Intl
Flight Number -
Tags generated
Created
Modified
Stats Distance 94 nm / 175 km
Max Altitude 10,500 ft / 3,200 m
Waypoints 4
Social Downloads 1
Likes 0
Share VATSIM

Download

Looking for another format? Having issues loading an existing format? Contact us
Advertisement - Login to hide

Notes

Basic altitude profile: - Ascent Rate: 2500ft/min - Ascent Speed: 250kts - Cruise Altitude: 35000ft - Cruise Speed: 420kts - Descent Rate: 1500ft/min - Descent Speed: 250kts Options: - Use NATs: yes - Use PACOTS: yes - Use low airways: yes - Use high airways: yes

Route

MMTJ HAILE V186 ROBNN KSBD

ID Type Via Altitude Latitude Longitude Leg Dist Tot Dist Heading (true) Name
O MMTJ APT - 0 ft / 0 m 32.54106˚ -116.97016˚ - 0 nm - GENERAL ABELARDO L RODRIGUEZ INTL
HAILE FIX - 5,100 ft / 1,554 m 32.77936˚ -117.01436˚ 14 nm 14 nm 351° / 351° -
ROBNN FIX V186 (AWY-LO) 10,500 ft / 3,200 m 33.20348˚ -117.10349˚ 25 nm 40 nm 350° / 350° -
O KSBD APT - 0 ft / 0 m 34.09534˚ -117.23487˚ 53 nm 94 nm 353° / 353° San Bernardino Intl

Altitude Profile

Advertisement - Login to hide

MMTJ

Details ICAO MMTJ (TIJ)
Name GENERAL ABELARDO L RODRIGUEZ INTL
Region Mexico
Timezone America/Tijuana (UTC-7.0)
Stats Elevation 489 ft / 149 m (AMSL)
Location 32.541063° -116.970158°
Runways 1
Magnetic Variation 11.405° E

METAR

MMTJ 231747Z 36003KT 8SM OVC035 17/10 A3000 RMK SLP156 57006 908 8/5// HZY BINOVC

Decode

TAF

TAF MMTJ 231712Z 2318/2424 24005KT P6SM OVC030 TX20/2321Z TN14/2410Z FM240000 00000KT P6SM SKC FM240600 00000KT 6SM HZ OVC020 FM241600 00000KT P6SM OVC030

Decode

Departure Runways

ID Width Length Bearing (true) Bearing (mag) Surface Threshold Offset Overrun Length
09 144 ft / 44 m 9,660 ft / 2,944 m 98.85° 87.45° Concrete 0 ft / 0 m 180 ft / 55 m
27 144 ft / 44 m 9,660 ft / 2,944 m 278.86° 267.46° Concrete 0 ft / 0 m 180 ft / 55 m

KSBD

Details ICAO KSBD (SBD)
Name San Bernardino Intl
Region United States
Timezone America/Los_Angeles (UTC-7.0)
Stats Elevation 1,157 ft / 353 m (AMSL)
Location 34.095343° -117.234869°
Runways 1
Magnetic Variation 11.753° E

METAR

KSBD 231850Z 00000KT 4SM HZ OVC024 19/10 A2999

Decode

TAF

TAF KSBD 231738Z 2318/2418 VRB04KT 4SM HZ BKN025 FM232200 26010KT 5SM HZ SCT030 FM240400 25005KT P6SM SCT020 FM240900 VRB04KT P6SM OVC020

Decode

Destination Runways

ID Width Length Bearing (true) Bearing (mag) Surface Threshold Offset Overrun Length
06 180 ft / 55 m 9,963 ft / 3,037 m 70.26° 58.51° Asphalt 0 ft / 0 m 1,000 ft / 305 m
24 180 ft / 55 m 9,963 ft / 3,037 m 250.27° 238.52° Asphalt 0 ft / 0 m 1,000 ft / 305 m

Approach Navaids

Runway Type Ident Frequency Range Bearing (true) Bearing (mag) Slope Elevation
06 Localiser ISBD 109.30 MHz 18 nm / 33 km 70.31° 58.56° - 1,086 ft / 331 m (AMSL)
06 Glidescope ISBD 109.30 MHz 10 nm / 19 km 70.27° 58.51° 3.00° 1,157 ft / 353 m (AMSL)